Flight Track Log - Related Links

Times and Time Zones

All times are in EDT time to prevent confusion due to time zone crossing. See the N1158D flight status page for this flight to view local times or setup timezone preferences in your user account.

Time Position Orientation Groundspeed Altitude Reporting Facility
EDT Latitude Longitude Course Direction KTS MPH feet Rate Location/Type
Wed 06:08:57 PM 39.9969 -82.8981 345° North 79 91 1,000  Level Indianapolis Center
Wed 06:09:51 PM 40.0133 -82.9036 345° North 71 82 1,700 783 Climbing Indianapolis Center
Wed 06:10:52 PM 40.0322 -82.9011 North 66 76 2,500 516 Climbing Indianapolis Center
Wed 06:11:59 PM 40.0556 -82.8994 North 93 107 2,800 198 Climbing Indianapolis Center
Wed 06:12:53 PM 40.0850 -82.8986 North 125 144 2,900 55 Climbing Indianapolis Center
Wed 06:13:48 PM 40.1189 -82.8958 North 133 153 2,900  Level Indianapolis Center
Wed 06:15:01 PM 40.1611 -82.8944 North 129 148 2,900  Level Indianapolis Center
Wed 06:15:55 PM 40.1950 -82.8917 North 127 146 2,900 -55 Level Indianapolis Center
Wed 06:16:50 PM 40.2267 -82.8883 North 126 145 2,800 -71 Descending Indianapolis Center
Wed 06:17:20 PM 40.2400 -82.8856 North 126 145 2,800  Level Indianapolis Center
Wed 06:17:51 PM 40.2628 -82.8858 359° North 127 146 2,800  Level Indianapolis Center
Wed 06:18:21 PM 40.2753 -82.8836 North 125 144 2,800  Level Indianapolis Center
Wed 06:18:51 PM 40.2967 -82.8831 North 127 146 2,800  Level Indianapolis Center
Wed 06:19:23 PM 40.3122 -82.8800 North 128 147 2,800 65 Level Indianapolis Center
Wed 06:20:24 PM 40.3478 -82.8772 North 128 147 2,900  Climbing Indianapolis Center
Wed 06:21:25 PM 40.3883 -82.8747 North 126 145 2,800  Descending Indianapolis Center
Wed 06:22:27 PM 40.4217 -82.8722 North 122 140 2,900 98 Climbing Indianapolis Center
Wed 06:23:28 PM 40.4536 -82.8692 North 118 136 3,000  Climbing Indianapolis Center
Wed 06:24:29 PM 40.4869 -82.8667 North 118 136 2,900 -49 Descending Indianapolis Center
Wed 06:25:31 PM 40.5231 -82.8661 North 124 143 2,900 49 Level Indianapolis Center
Wed 06:26:32 PM 40.5594 -82.8625 North 129 148 3,000  Climbing Indianapolis Center
Wed 06:27:34 PM 40.5947 -82.8600 North 128 147 2,900 -49 Descending Indianapolis Center
Wed 06:28:35 PM 40.6306 -82.8581 North 128 147 2,900 49 Level Indianapolis Center
Wed 06:29:36 PM 40.6664 -82.8558 North 128 147 3,000  Climbing Indianapolis Center
Wed 06:31:00 PM 40.7113 -82.8543 North  Level FlightAware Approximate
Wed 06:31:39 PM 40.7378 -82.8528 North 125 144 2,900  Level Indianapolis Center
Wed 06:32:41 PM 40.7739 -82.8503 North 127 146 2,900 -49 Level Indianapolis Center
Wed 06:33:42 PM 40.8089 -82.8467 North 125 144 2,800 -98 Descending Indianapolis Center

Login

Don't have an account? Register now (free) for customized features, flight alerts, and more!